カーナーク/チューレ空軍基地 の空港の天気 - METARとTAF

チューレ空軍基地 ( BGTL / THU ) - グリーンランド カーナーク
飛行場実況気象(Metar)
観測時間11/27 02:55 AST (11/27 06:55 UTC)
風向・風速静穏 0m/s
視程10km以上
天気現象
全天を覆う雲 雲底高度 490m
気温-13.3℃
湿度72%
気圧1004.3hPa
METARBGTL 270655Z AUTO 00000KT 9999 OVC016 M13/M17 A2969 RMK AO2 CIG 015 RWY26 SLP043 T11331173 TSNO $
過去の天気等 Google飛行場航空写真 Wunderground天気予報

過去48時間のMETAR

飛行場予報(TAF)
データがありません